createdAt,value
2019-02-02T00:00:32.680Z,86.22
2019-02-02T00:03:03.702Z,86.35
2019-02-02T00:05:34.657Z,86.66
2019-02-02T00:08:05.926Z,87.00
2019-02-02T00:10:37.076Z,86.65
2019-02-02T00:13:11.117Z,86.64
2019-02-02T00:15:42.042Z,86.70
2019-02-02T00:18:12.995Z,87.09
2019-02-02T00:20:43.922Z,86.76
2019-02-02T00:23:14.987Z,86.71
2019-02-02T00:25:45.888Z,86.90
2019-02-02T00:28:16.798Z,86.90
2019-02-02T00:30:48.106Z,86.76
2019-02-02T00:33:18.988Z,86.93
2019-02-02T00:35:49.900Z,86.73
2019-02-02T00:38:20.910Z,86.40
2019-02-02T00:40:51.852Z,86.15
2019-02-02T00:43:23.085Z,86.16
2019-02-02T00:45:54.113Z,86.13
2019-02-02T00:48:25.304Z,85.60
2019-02-02T00:50:57.590Z,85.76
2019-02-02T00:53:28.577Z,85.64
2019-02-02T00:55:59.533Z,85.39
2019-02-02T00:58:30.729Z,85.69
2019-02-02T01:01:01.737Z,85.58
2019-02-02T01:03:32.983Z,85.46
2019-02-02T01:06:04.989Z,85.35
2019-02-02T01:08:36.119Z,85.15
2019-02-02T01:11:10.123Z,85.39
2019-02-02T01:13:41.033Z,85.60
2019-02-02T01:16:12.056Z,85.48
2019-02-02T01:18:43.013Z,86.02
2019-02-02T01:21:13.997Z,86.11
2019-02-02T01:23:45.100Z,86.11
2019-02-02T01:26:16.412Z,86.15
2019-02-02T01:28:47.334Z,85.84
2019-02-02T01:31:18.287Z,85.47
2019-02-02T01:33:49.562Z,85.34
2019-02-02T01:36:20.790Z,85.25
2019-02-02T01:38:51.705Z,85.70
2019-02-02T01:41:22.957Z,86.00
2019-02-02T01:43:53.883Z,85.97
2019-02-02T01:46:24.811Z,86.61
2019-02-02T01:48:55.797Z,86.61
2019-02-02T01:51:26.742Z,86.13
2019-02-02T01:53:57.637Z,86.02
2019-02-02T01:56:28.659Z,86.20
2019-02-02T01:58:59.585Z,85.82
2019-02-02T02:01:30.549Z,85.68
2019-02-02T02:04:01.802Z,85.44
2019-02-02T02:06:32.720Z,85.47
2019-02-02T02:09:04.561Z,85.54
2019-02-02T02:11:35.508Z,85.41
2019-02-02T02:14:06.692Z,85.66
2019-02-02T02:16:37.613Z,85.46
2019-02-02T02:19:08.731Z,85.06
2019-02-02T02:21:39.651Z,85.15
2019-02-02T02:24:10.658Z,85.37
2019-02-02T02:26:41.704Z,85.36
2019-02-02T02:29:12.893Z,85.00
2019-02-02T02:31:43.779Z,84.81
2019-02-02T02:34:14.734Z,84.93
2019-02-02T02:36:45.937Z,85.38
2019-02-02T02:39:16.850Z,85.23
2019-02-02T02:41:47.799Z,85.85
2019-02-02T02:44:18.727Z,85.81
2019-02-02T02:46:49.640Z,85.62
2019-02-02T02:49:20.573Z,85.64
2019-02-02T02:51:51.539Z,85.60
2019-02-02T02:54:22.467Z,85.60
2019-02-02T02:56:53.399Z,85.50
2019-02-02T02:59:24.314Z,85.37
2019-02-02T03:01:55.669Z,85.42
2019-02-02T03:04:26.791Z,85.28
2019-02-02T03:06:57.723Z,85.51
2019-02-02T03:09:28.664Z,85.57
2019-02-02T03:11:59.933Z,85.75
2019-02-02T03:14:30.932Z,85.55
2019-02-02T03:17:01.837Z,85.28
2019-02-02T03:19:32.835Z,85.50
2019-02-02T03:22:03.763Z,85.63
2019-02-02T03:24:34.717Z,85.37
2019-02-02T03:27:05.859Z,85.40
2019-02-02T03:29:37.061Z,85.36
2019-02-02T03:32:07.949Z,85.35
2019-02-02T03:34:38.909Z,85.55
2019-02-02T03:37:09.888Z,85.92
2019-02-02T03:39:41.131Z,85.97
2019-02-02T03:42:12.084Z,85.97
2019-02-02T03:44:46.045Z,85.52
2019-02-02T03:47:17.101Z,85.54
2019-02-02T03:49:48.333Z,85.32
2019-02-02T03:52:19.318Z,85.35
2019-02-02T03:54:50.367Z,85.06
2019-02-02T03:57:21.488Z,84.92
2019-02-02T03:59:52.397Z,85.18
2019-02-02T04:02:23.343Z,85.52
2019-02-02T04:04:57.292Z,85.42
2019-02-02T04:07:28.245Z,85.48
2019-02-02T04:09:59.153Z,85.97
2019-02-02T04:12:30.058Z,85.91
2019-02-02T04:15:01.039Z,85.75
2019-02-02T04:17:32.097Z,86.46
2019-02-02T04:20:03.061Z,86.30
2019-02-02T04:22:35.783Z,86.00
2019-02-02T04:25:07.947Z,85.77
2019-02-02T04:27:38.878Z,85.13
2019-02-02T04:30:14.638Z,85.39
2019-02-02T04:32:46.087Z,85.28
2019-02-02T04:35:17.094Z,85.07
2019-02-02T04:37:48.093Z,85.96
2019-02-02T04:40:19.294Z,86.15
2019-02-02T04:42:50.201Z,86.32
2019-02-02T04:45:21.212Z,86.28
2019-02-02T04:47:52.218Z,86.39
2019-02-02T04:50:23.163Z,86.76
2019-02-02T04:52:54.071Z,86.97
2019-02-02T04:55:25.141Z,86.95
2019-02-02T04:57:56.022Z,86.65
2019-02-02T05:00:27.963Z,86.44
2019-02-02T05:02:58.983Z,86.24
2019-02-02T05:05:30.021Z,86.12
2019-02-02T05:08:01.041Z,86.20
2019-02-02T05:10:32.048Z,86.10
2019-02-02T05:13:02.952Z,86.16
2019-02-02T05:15:33.840Z,85.89
2019-02-02T05:18:04.968Z,85.50
2019-02-02T05:20:35.857Z,85.11
2019-02-02T05:23:06.778Z,84.97
2019-02-02T05:25:37.695Z,85.18
2019-02-02T05:28:08.589Z,85.01
2019-02-02T05:30:40.071Z,84.91
2019-02-02T05:33:11.027Z,85.44
2019-02-02T05:35:41.972Z,84.97
2019-02-02T05:38:12.853Z,84.85
2019-02-02T05:40:43.773Z,85.04
2019-02-02T05:43:25.062Z,85.26
2019-02-02T05:45:47.297Z,85.33
2019-02-02T05:48:18.297Z,85.58
2019-02-02T05:50:49.211Z,85.92
2019-02-02T05:53:20.107Z,86.32
2019-02-02T05:55:51.343Z,86.00
2019-02-02T05:58:22.569Z,86.19
2019-02-02T06:00:55.266Z,86.39
2019-02-02T06:03:26.214Z,86.76
2019-02-02T06:05:57.432Z,87.04
2019-02-02T06:08:28.328Z,87.20
2019-02-02T06:10:59.289Z,86.75
2019-02-02T06:13:30.287Z,86.02
2019-02-02T06:16:01.308Z,85.46
2019-02-02T06:18:32.605Z,85.76
2019-02-02T06:21:03.502Z,85.51
2019-02-02T06:23:34.447Z,85.07
2019-02-02T06:26:05.899Z,85.08
2019-02-02T06:28:36.813Z,84.96
2019-02-02T06:31:07.757Z,85.04
2019-02-02T06:33:38.761Z,85.21
2019-02-02T06:36:09.660Z,85.31
2019-02-02T06:38:40.626Z,85.72
2019-02-02T06:41:11.620Z,86.50
2019-02-02T06:43:42.505Z,86.29
2019-02-02T06:46:13.711Z,85.80
2019-02-02T06:48:44.725Z,85.71
2019-02-02T06:51:15.640Z,85.75
2019-02-02T06:53:50.121Z,86.33
2019-02-02T06:56:21.040Z,86.53
2019-02-02T06:58:51.966Z,86.61
2019-02-02T07:01:22.995Z,86.93
2019-02-02T07:03:53.958Z,87.31
2019-02-02T07:06:24.881Z,87.50
2019-02-02T07:08:56.317Z,87.24
2019-02-02T07:11:27.246Z,87.17
2019-02-02T07:13:58.161Z,86.85
2019-02-02T07:16:29.132Z,86.43
2019-02-02T07:19:01.221Z,86.89
2019-02-02T07:21:32.240Z,86.86
2019-02-02T07:24:03.477Z,85.85
2019-02-02T07:26:34.364Z,85.64
2019-02-02T07:29:05.778Z,85.32
2019-02-02T07:31:36.721Z,85.49
2019-02-02T07:34:07.706Z,85.17
2019-02-02T07:36:38.624Z,85.52
2019-02-02T07:39:10.054Z,85.12
2019-02-02T07:41:41.296Z,85.20
2019-02-02T07:44:12.298Z,84.98
2019-02-02T07:46:43.542Z,84.51
2019-02-02T07:49:14.455Z,85.01
2019-02-02T07:51:45.432Z,85.08
2019-02-02T07:54:16.782Z,85.10
2019-02-02T07:56:47.694Z,84.97
2019-02-02T07:59:18.568Z,84.69
2019-02-02T08:01:49.513Z,84.66
2019-02-02T08:04:20.456Z,84.52
2019-02-02T08:06:51.432Z,84.21
2019-02-02T08:09:22.412Z,83.82
2019-02-02T08:11:53.323Z,84.42
2019-02-02T08:14:24.250Z,84.43
2019-02-02T08:16:55.543Z,84.20
2019-02-02T08:19:26.428Z,83.41
2019-02-02T08:21:57.444Z,83.50
2019-02-02T08:24:28.390Z,84.28
2019-02-02T08:26:59.421Z,84.43
2019-02-02T08:29:30.691Z,84.17
2019-02-02T08:32:01.649Z,84.25
2019-02-02T08:34:32.625Z,83.86
2019-02-02T08:37:03.750Z,83.72
2019-02-02T08:39:35.074Z,83.83
2019-02-02T08:42:06.408Z,83.87
2019-02-02T08:44:37.365Z,83.79
2019-02-02T08:47:08.684Z,83.97
2019-02-02T08:49:40.412Z,84.69
2019-02-02T08:52:11.758Z,84.87
2019-02-02T08:54:42.774Z,85.05
2019-02-02T08:57:13.798Z,85.15
2019-02-02T08:59:44.697Z,85.08
2019-02-02T09:02:15.855Z,85.45
2019-02-02T09:04:47.011Z,85.17
2019-02-02T09:07:17.973Z,85.01
2019-02-02T09:09:48.918Z,84.48
2019-02-02T09:12:19.909Z,83.84
2019-02-02T09:14:50.827Z,84.19
2019-02-02T09:17:21.769Z,83.68
2019-02-02T09:19:52.654Z,83.40
2019-02-02T09:22:23.592Z,83.59
2019-02-02T09:24:54.501Z,83.74
2019-02-02T09:27:25.419Z,83.79
2019-02-02T09:29:56.347Z,83.87
2019-02-02T09:32:27.310Z,83.53
2019-02-02T09:34:58.251Z,83.62
2019-02-02T09:37:29.145Z,83.86
2019-02-02T09:40:00.362Z,83.63
2019-02-02T09:42:31.489Z,83.67
2019-02-02T09:45:02.396Z,84.47
2019-02-02T09:47:33.363Z,84.08
2019-02-02T09:50:04.712Z,84.32
2019-02-02T09:52:35.765Z,84.16
2019-02-02T09:55:10.143Z,84.08
2019-02-02T09:57:41.074Z,84.75
2019-02-02T10:00:20.650Z,84.77
2019-02-02T10:02:51.779Z,84.64
2019-02-02T10:05:22.705Z,84.44
2019-02-02T10:07:53.948Z,84.64
2019-02-02T10:10:26.927Z,84.26
2019-02-02T10:12:57.966Z,84.55
2019-02-02T10:15:28.874Z,84.59
2019-02-02T10:17:59.811Z,84.45
2019-02-02T10:20:31.704Z,84.95
2019-02-02T10:23:02.636Z,84.30
2019-02-02T10:25:33.953Z,84.48
2019-02-02T10:28:05.663Z,83.86
2019-02-02T10:30:42.591Z,83.84
2019-02-02T10:33:15.665Z,84.08
2019-02-02T10:35:46.712Z,84.45
2019-02-02T10:38:17.639Z,84.34
2019-02-02T10:40:48.532Z,84.38
2019-02-02T10:43:19.492Z,85.07
2019-02-02T10:45:50.700Z,85.15
2019-02-02T10:48:21.575Z,84.95
2019-02-02T10:50:52.528Z,85.17
2019-02-02T10:53:23.767Z,84.62
2019-02-02T10:55:55.051Z,84.06
2019-02-02T10:58:26.027Z,83.71
2019-02-02T11:00:57.105Z,84.35
2019-02-02T11:03:28.016Z,84.25
2019-02-02T11:05:59.550Z,84.92
2019-02-02T11:08:30.507Z,84.51
2019-02-02T11:11:01.534Z,84.95
2019-02-02T11:13:32.946Z,85.39
2019-02-02T11:16:04.350Z,84.83
2019-02-02T11:18:35.628Z,85.25
2019-02-02T11:21:06.627Z,85.24
2019-02-02T11:23:37.547Z,85.44
2019-02-02T11:26:08.494Z,85.31
2019-02-02T11:28:39.534Z,85.57
2019-02-02T11:31:10.452Z,84.88
2019-02-02T11:33:44.259Z,85.24
2019-02-02T11:36:14.401Z,85.65
2019-02-02T11:38:47.212Z,85.45
2019-02-02T11:41:18.336Z,85.35
2019-02-02T11:43:49.603Z,85.94
2019-02-02T11:46:20.569Z,85.76
2019-02-02T11:48:51.808Z,85.62
2019-02-02T11:51:22.811Z,85.80
2019-02-02T11:53:53.761Z,86.14
2019-02-02T11:56:24.738Z,86.14
2019-02-02T11:58:55.739Z,86.40
2019-02-02T12:01:26.631Z,86.07
2019-02-02T12:03:57.866Z,86.67
2019-02-02T12:06:28.811Z,87.24
2019-02-02T12:09:00.015Z,86.72
2019-02-02T12:11:31.113Z,86.65
2019-02-02T12:14:02.120Z,86.24
2019-02-02T12:16:33.088Z,86.52
2019-02-02T12:19:04.655Z,87.02
2019-02-02T12:21:35.714Z,86.48
2019-02-02T12:24:15.913Z,86.81
2019-02-02T12:26:39.515Z,86.65
2019-02-02T12:29:10.578Z,86.99
2019-02-02T12:31:41.475Z,87.12
2019-02-02T12:34:12.385Z,87.04
2019-02-02T12:36:43.326Z,86.63
2019-02-02T12:39:14.984Z,86.98
2019-02-02T12:41:45.934Z,87.39
2019-02-02T12:44:17.148Z,87.19
2019-02-02T12:46:48.066Z,87.29
2019-02-02T12:49:19.068Z,87.88
2019-02-02T12:51:49.980Z,88.15
2019-02-02T12:54:21.536Z,88.78
2019-02-02T12:56:52.501Z,89.02
2019-02-02T12:59:23.431Z,89.21
2019-02-02T13:01:54.351Z,88.95
2019-02-02T13:04:25.625Z,89.23
2019-02-02T13:06:56.625Z,89.46
2019-02-02T13:13:27.094Z,89.56
2019-02-02T13:15:58.314Z,89.84
2019-02-02T13:18:29.674Z,89.37
2019-02-02T13:21:00.618Z,89.58
2019-02-02T13:23:31.512Z,89.45
2019-02-02T13:26:05.374Z,89.28
2019-02-02T13:32:34.395Z,89.17
2019-02-02T13:35:06.143Z,89.09
2019-02-02T13:37:37.430Z,88.81
2019-02-02T13:40:11.538Z,88.94
2019-02-02T13:42:42.492Z,88.70
2019-02-02T13:45:14.283Z,88.56
2019-02-02T13:47:45.377Z,88.22
2019-02-02T13:50:18.062Z,88.15
2019-02-02T13:52:49.910Z,88.44
2019-02-02T13:55:20.903Z,88.95
2019-02-02T13:57:52.187Z,89.23
2019-02-02T14:00:26.799Z,89.21
2019-02-02T14:03:02.873Z,89.64
2019-02-02T14:05:30.753Z,89.55
2019-02-02T14:08:01.715Z,89.60
2019-02-02T14:10:34.187Z,89.87
2019-02-02T14:13:05.191Z,90.14
2019-02-02T14:15:39.188Z,89.83
2019-02-02T14:18:09.159Z,90.18
2019-02-02T14:20:40.065Z,90.51
2019-02-02T14:23:11.009Z,90.64
2019-02-02T14:25:44.003Z,90.25
2019-02-02T14:28:14.957Z,89.78
2019-02-02T14:30:45.961Z,89.55
2019-02-02T14:33:19.877Z,89.60
2019-02-02T14:35:50.933Z,89.47
2019-02-02T14:38:21.901Z,90.13
2019-02-02T14:40:52.871Z,90.30
2019-02-02T14:43:24.140Z,89.84
2019-02-02T14:45:55.282Z,90.14
2019-02-02T14:48:26.291Z,89.88
2019-02-02T14:50:57.192Z,90.40
2019-02-02T14:53:28.569Z,90.57
2019-02-02T14:55:59.610Z,90.70
2019-02-02T14:58:30.843Z,90.58
2019-02-02T15:01:01.803Z,89.94
2019-02-02T15:03:32.871Z,89.90
2019-02-02T15:06:04.183Z,90.31
2019-02-02T15:08:35.126Z,90.24
2019-02-02T15:11:06.079Z,89.95
2019-02-02T15:13:37.050Z,89.48
2019-02-02T15:16:07.952Z,89.33
2019-02-02T15:18:39.198Z,89.53
2019-02-02T15:21:10.214Z,89.34
2019-02-02T15:23:41.147Z,89.27
2019-02-02T15:26:12.183Z,89.80
2019-02-02T15:28:43.525Z,90.30
2019-02-02T15:31:14.417Z,90.40
2019-02-02T15:33:45.342Z,90.34
2019-02-02T15:36:16.312Z,90.68
2019-02-02T15:38:49.580Z,90.36
2019-02-02T15:41:20.815Z,90.52
2019-02-02T15:43:54.398Z,90.69
2019-02-02T15:46:25.424Z,90.69
2019-02-02T15:48:56.312Z,90.25
2019-02-02T15:51:27.638Z,90.57
2019-02-02T15:53:58.554Z,90.46
2019-02-02T15:56:29.614Z,90.38
2019-02-02T15:59:00.581Z,90.65
2019-02-02T16:01:32.075Z,90.64
2019-02-02T16:04:03.617Z,90.99
2019-02-02T16:06:37.088Z,91.14
2019-02-02T16:09:11.064Z,91.17
2019-02-02T16:11:42.049Z,91.15
2019-02-02T16:14:13.029Z,91.01
2019-02-02T16:16:43.986Z,90.73
2019-02-02T16:19:14.929Z,90.66
2019-02-02T16:21:46.381Z,91.05
2019-02-02T16:24:17.421Z,91.31
2019-02-02T16:26:48.831Z,91.33
2019-02-02T16:29:20.153Z,91.35
2019-02-02T16:31:51.942Z,91.23
2019-02-02T16:34:22.992Z,91.19
2019-02-02T16:36:53.996Z,90.95
2019-02-02T16:39:24.917Z,90.89
2019-02-02T16:41:56.194Z,91.15
2019-02-02T16:44:27.288Z,91.12
2019-02-02T16:46:58.254Z,91.25
2019-02-02T16:49:29.166Z,91.44
2019-02-02T16:52:00.131Z,91.54
2019-02-02T16:54:31.669Z,91.84
2019-02-02T16:57:02.902Z,92.17
2019-02-02T16:59:34.205Z,91.97
2019-02-02T17:02:05.205Z,92.40
2019-02-02T17:04:36.149Z,92.08
2019-02-02T17:07:07.264Z,92.03
2019-02-02T17:09:38.286Z,92.09
2019-02-02T17:12:09.709Z,92.38
2019-02-02T17:14:41.870Z,92.19
2019-02-02T17:17:12.805Z,92.11
2019-02-02T17:19:43.857Z,92.40
2019-02-02T17:22:14.780Z,92.62
2019-02-02T17:24:45.785Z,92.97
2019-02-02T17:27:16.701Z,92.93
2019-02-02T17:29:48.479Z,92.61
2019-02-02T17:32:21.047Z,92.48
2019-02-02T17:34:52.003Z,92.38
2019-02-02T17:37:23.017Z,92.25
2019-02-02T17:39:53.950Z,92.00
2019-02-02T17:42:24.913Z,92.11
2019-02-02T17:44:56.229Z,92.13
2019-02-02T17:47:27.250Z,91.82
2019-02-02T17:49:59.737Z,91.51
2019-02-02T17:52:30.765Z,91.56
2019-02-02T17:55:03.645Z,91.68
2019-02-02T17:57:34.968Z,91.48
2019-02-02T18:00:09.340Z,91.66
2019-02-02T18:02:40.292Z,91.89
2019-02-02T18:05:11.254Z,92.27
2019-02-02T18:07:42.828Z,92.36
2019-02-02T18:10:15.591Z,92.41
2019-02-02T18:12:46.560Z,92.42
2019-02-02T18:15:18.869Z,92.51
2019-02-02T18:17:51.808Z,92.29
2019-02-02T18:20:23.058Z,92.23
2019-02-02T18:22:54.011Z,92.29
2019-02-02T18:25:25.085Z,92.31
2019-02-02T18:27:56.450Z,92.17
2019-02-02T18:30:27.690Z,92.30
2019-02-02T18:32:59.102Z,92.57
2019-02-02T18:35:30.010Z,92.63
2019-02-02T18:38:01.251Z,92.75
2019-02-02T18:40:32.499Z,92.56
2019-02-02T18:43:04.121Z,92.77
2019-02-02T18:45:35.114Z,92.78
2019-02-02T18:48:07.227Z,92.81
2019-02-02T18:50:38.476Z,92.85
2019-02-02T18:53:09.731Z,93.01
2019-02-02T18:55:45.008Z,93.30
2019-02-02T18:58:16.252Z,93.13
2019-02-02T19:00:47.457Z,92.91
2019-02-02T19:03:18.492Z,92.83
2019-02-02T19:05:50.312Z,92.84
2019-02-02T19:08:21.359Z,93.05
2019-02-02T19:10:52.479Z,93.25
2019-02-02T19:13:23.532Z,93.47
2019-02-02T19:15:54.889Z,93.67
2019-02-02T19:18:27.047Z,93.73
2019-02-02T19:20:58.031Z,93.75
2019-02-02T19:23:29.130Z,93.90
2019-02-02T19:26:00.485Z,93.73
2019-02-02T19:28:39.516Z,93.60
2019-02-02T19:31:04.730Z,93.55
2019-02-02T19:33:36.122Z,93.58
2019-02-02T19:36:07.207Z,93.68
2019-02-02T19:38:38.399Z,93.69
2019-02-02T19:41:09.438Z,93.65
2019-02-02T19:43:40.679Z,93.74
2019-02-02T19:46:11.702Z,93.92
2019-02-02T19:48:42.647Z,93.93
2019-02-02T19:51:13.619Z,94.20
2019-02-02T19:53:45.092Z,94.05
2019-02-02T19:56:16.181Z,94.14
2019-02-02T19:58:47.915Z,94.27
2019-02-02T20:01:22.052Z,94.31
2019-02-02T20:03:53.875Z,94.26
2019-02-02T20:06:24.869Z,94.31
2019-02-02T20:08:58.812Z,94.37
2019-02-02T20:11:30.133Z,94.40
2019-02-02T20:14:04.408Z,94.48
2019-02-02T20:16:35.997Z,94.62
2019-02-02T20:19:07.665Z,94.73
2019-02-02T20:21:40.863Z,94.57
2019-02-02T20:24:14.184Z,94.65
2019-02-02T20:26:45.358Z,94.74
2019-02-02T20:29:16.852Z,94.89
2019-02-02T20:31:48.158Z,94.98
2019-02-02T20:34:19.448Z,94.79
2019-02-02T20:36:50.413Z,94.67
2019-02-02T20:39:21.806Z,94.32
2019-02-02T20:41:52.956Z,94.26
2019-02-02T20:44:24.536Z,94.37
2019-02-02T20:46:55.893Z,94.26
2019-02-02T20:49:27.293Z,94.20
2019-02-02T20:51:59.014Z,94.26
2019-02-02T20:54:30.523Z,94.32
2019-02-02T20:57:01.872Z,94.30
2019-02-02T20:59:33.200Z,94.44
2019-02-02T21:02:04.647Z,94.57
2019-02-02T21:04:35.679Z,94.77
2019-02-02T21:07:06.794Z,94.81
2019-02-02T21:09:38.171Z,94.76
2019-02-02T21:12:09.343Z,94.85
2019-02-02T21:14:41.190Z,94.89
2019-02-02T21:17:12.569Z,94.86
2019-02-02T21:19:43.550Z,94.54
2019-02-02T21:22:14.873Z,94.53
2019-02-02T21:24:45.961Z,94.28
2019-02-02T21:27:17.207Z,94.40
2019-02-02T21:29:49.016Z,94.48
2019-02-02T21:32:21.015Z,94.54
2019-02-02T21:34:52.543Z,94.37
2019-02-02T21:37:23.469Z,94.48
2019-02-02T21:39:54.778Z,94.61
2019-02-02T21:42:25.779Z,94.71
2019-02-02T21:45:00.406Z,94.63
2019-02-02T21:47:31.790Z,94.55
2019-02-02T21:50:03.131Z,94.60
2019-02-02T21:52:36.484Z,94.68
2019-02-02T21:55:09.664Z,94.75
2019-02-02T21:57:40.660Z,94.56
2019-02-02T22:00:26.026Z,94.47
2019-02-02T22:02:57.152Z,94.51
2019-02-02T22:05:28.085Z,94.59
2019-02-02T22:07:59.130Z,94.59
2019-02-02T22:10:30.265Z,94.34
2019-02-02T22:13:01.728Z,94.25
2019-02-02T22:15:35.730Z,94.22
2019-02-02T22:18:06.997Z,94.37
2019-02-02T22:20:37.945Z,94.45
2019-02-02T22:23:09.274Z,94.60
2019-02-02T22:25:41.269Z,94.76
2019-02-02T22:28:12.218Z,94.86
2019-02-02T22:30:43.293Z,94.92
2019-02-02T22:33:14.356Z,94.92
2019-02-02T22:35:45.793Z,94.97
2019-02-02T22:38:17.025Z,94.88
2019-02-02T22:40:48.065Z,94.79
2019-02-02T22:43:19.078Z,94.73
2019-02-02T22:45:50.055Z,94.65
2019-02-02T22:48:21.061Z,94.58
2019-02-02T22:50:52.174Z,94.53
2019-02-02T22:53:23.225Z,94.51
2019-02-02T22:55:54.182Z,94.33
2019-02-02T22:58:25.135Z,94.33
2019-02-02T23:01:28.896Z,94.12
2019-02-02T23:04:58.038Z,94.11
2019-02-02T23:08:01.373Z,93.91
2019-02-02T23:11:30.486Z,94.10
2019-02-02T23:14:47.420Z,94.09
2019-02-02T23:17:18.680Z,94.13
2019-02-02T23:19:49.760Z,93.95
2019-02-02T23:22:20.957Z,93.68
2019-02-02T23:24:51.934Z,93.63
2019-02-02T23:27:22.964Z,93.52
2019-02-02T23:29:53.975Z,93.30
2019-02-02T23:32:24.960Z,93.21
2019-02-02T23:34:56.240Z,93.37
2019-02-02T23:37:27.238Z,93.53
2019-02-02T23:39:58.858Z,93.61
2019-02-02T23:42:29.889Z,93.39
2019-02-02T23:45:00.849Z,93.18
2019-02-02T23:47:31.891Z,93.31
2019-02-02T23:50:02.799Z,93.42
2019-02-02T23:52:33.819Z,93.48
2019-02-02T23:55:05.338Z,93.27
2019-02-02T23:57:36.726Z,93.07
